sensor_id;sensor_type;location;lat;lon;timestamp;P1;durP1;ratioP1;P2;durP2;ratioP2
43184;SDS011;28803;52.308;19.096;2023-04-09T00:01:44;33.72;;;17.92;;
43184;SDS011;28803;52.308;19.096;2023-04-09T00:04:12;34.95;;;15.50;;
43184;SDS011;28803;52.308;19.096;2023-04-09T00:06:39;29.85;;;15.80;;
43184;SDS011;28803;52.308;19.096;2023-04-09T00:09:06;31.27;;;15.82;;
43184;SDS011;28803;52.308;19.096;2023-04-09T00:11:33;31.10;;;15.60;;
43184;SDS011;28803;52.308;19.096;2023-04-09T00:14:01;33.55;;;15.93;;
43184;SDS011;28803;52.308;19.096;2023-04-09T00:16:29;32.38;;;16.63;;
43184;SDS011;28803;52.308;19.096;2023-04-09T00:18:56;31.17;;;13.77;;
43184;SDS011;28803;52.308;19.096;2023-04-09T00:21:24;30.98;;;15.75;;
43184;SDS011;28803;52.308;19.096;2023-04-09T00:23:52;29.95;;;14.95;;
43184;SDS011;28803;52.308;19.096;2023-04-09T00:26:19;32.72;;;16.42;;
43184;SDS011;28803;52.308;19.096;2023-04-09T00:28:46;30.42;;;15.10;;
43184;SDS011;28803;52.308;19.096;2023-04-09T00:31:14;27.83;;;13.75;;
43184;SDS011;28803;52.308;19.096;2023-04-09T00:33:41;33.83;;;16.55;;
43184;SDS011;28803;52.308;19.096;2023-04-09T00:36:09;28.45;;;13.90;;
43184;SDS011;28803;52.308;19.096;2023-04-09T00:38:36;32.25;;;15.13;;
43184;SDS011;28803;52.308;19.096;2023-04-09T00:41:03;30.77;;;15.80;;
43184;SDS011;28803;52.308;19.096;2023-04-09T00:43:30;35.20;;;16.10;;
43184;SDS011;28803;52.308;19.096;2023-04-09T00:45:58;35.60;;;17.23;;
43184;SDS011;28803;52.308;19.096;2023-04-09T00:48:26;31.02;;;15.55;;
43184;SDS011;28803;52.308;19.096;2023-04-09T00:50:53;32.70;;;15.60;;
43184;SDS011;28803;52.308;19.096;2023-04-09T00:53:21;33.13;;;16.02;;
43184;SDS011;28803;52.308;19.096;2023-04-09T00:55:48;35.70;;;18.10;;
43184;SDS011;28803;52.308;19.096;2023-04-09T00:58:15;33.90;;;15.93;;
43184;SDS011;28803;52.308;19.096;2023-04-09T01:00:43;37.72;;;19.67;;
43184;SDS011;28803;52.308;19.096;2023-04-09T01:03:10;41.22;;;20.35;;
43184;SDS011;28803;52.308;19.096;2023-04-09T01:05:58;37.35;;;18.58;;
43184;SDS011;28803;52.308;19.096;2023-04-09T01:11:23;45.83;;;21.25;;
43184;SDS011;28803;52.308;19.096;2023-04-09T01:14:05;39.00;;;19.65;;
43184;SDS011;28803;52.308;19.096;2023-04-09T01:16:41;41.78;;;20.60;;
43184;SDS011;28803;52.308;19.096;2023-04-09T01:25:18;45.17;;;20.75;;
43184;SDS011;28803;52.308;19.096;2023-04-09T01:30:29;41.70;;;20.20;;
43184;SDS011;28803;52.308;19.096;2023-04-09T01:32:56;44.00;;;23.85;;
43184;SDS011;28803;52.308;19.096;2023-04-09T01:35:24;45.17;;;21.00;;
43184;SDS011;28803;52.308;19.096;2023-04-09T01:37:52;40.90;;;20.05;;
43184;SDS011;28803;52.308;19.096;2023-04-09T01:40:20;44.42;;;20.70;;
43184;SDS011;28803;52.308;19.096;2023-04-09T01:42:48;42.75;;;20.88;;
43184;SDS011;28803;52.308;19.096;2023-04-09T01:45:16;39.15;;;19.38;;
43184;SDS011;28803;52.308;19.096;2023-04-09T01:47:44;38.35;;;18.75;;
43184;SDS011;28803;52.308;19.096;2023-04-09T01:50:11;39.63;;;19.25;;
43184;SDS011;28803;52.308;19.096;2023-04-09T01:52:39;43.42;;;20.02;;
43184;SDS011;28803;52.308;19.096;2023-04-09T01:55:06;48.60;;;20.85;;
43184;SDS011;28803;52.308;19.096;2023-04-09T01:57:34;43.60;;;19.65;;
43184;SDS011;28803;52.308;19.096;2023-04-09T02:00:01;52.22;;;21.15;;
43184;SDS011;28803;52.308;19.096;2023-04-09T02:02:50;43.40;;;20.55;;
43184;SDS011;28803;52.308;19.096;2023-04-09T02:05:24;40.88;;;19.25;;
43184;SDS011;28803;52.308;19.096;2023-04-09T02:07:57;48.75;;;20.85;;
43184;SDS011;28803;52.308;19.096;2023-04-09T02:10:29;43.15;;;19.88;;
43184;SDS011;28803;52.308;19.096;2023-04-09T02:12:59;51.17;;;21.90;;
43184;SDS011;28803;52.308;19.096;2023-04-09T02:15:28;47.95;;;22.42;;
43184;SDS011;28803;52.308;19.096;2023-04-09T02:17:58;51.17;;;22.80;;
43184;SDS011;28803;52.308;19.096;2023-04-09T02:20:25;44.47;;;20.48;;
43184;SDS011;28803;52.308;19.096;2023-04-09T02:22:53;44.28;;;21.55;;
43184;SDS011;28803;52.308;19.096;2023-04-09T02:25:21;43.92;;;20.70;;
43184;SDS011;28803;52.308;19.096;2023-04-09T02:27:50;50.15;;;21.73;;
43184;SDS011;28803;52.308;19.096;2023-04-09T02:30:17;43.70;;;20.15;;
43184;SDS011;28803;52.308;19.096;2023-04-09T02:32:44;46.75;;;22.23;;
43184;SDS011;28803;52.308;19.096;2023-04-09T02:35:11;47.33;;;21.73;;
43184;SDS011;28803;52.308;19.096;2023-04-09T02:37:40;48.25;;;21.33;;
43184;SDS011;28803;52.308;19.096;2023-04-09T02:40:07;47.33;;;22.10;;
43184;SDS011;28803;52.308;19.096;2023-04-09T02:42:34;46.92;;;21.27;;
43184;SDS011;28803;52.308;19.096;2023-04-09T02:45:01;46.70;;;21.38;;
43184;SDS011;28803;52.308;19.096;2023-04-09T02:47:29;44.35;;;20.50;;
43184;SDS011;28803;52.308;19.096;2023-04-09T02:49:56;46.58;;;21.15;;
43184;SDS011;28803;52.308;19.096;2023-04-09T02:52:23;50.95;;;21.40;;
43184;SDS011;28803;52.308;19.096;2023-04-09T02:54:51;48.10;;;22.20;;
43184;SDS011;28803;52.308;19.096;2023-04-09T02:57:19;45.72;;;22.42;;
43184;SDS011;28803;52.308;19.096;2023-04-09T02:59:46;49.97;;;22.83;;
43184;SDS011;28803;52.308;19.096;2023-04-09T03:02:13;40.15;;;20.25;;
43184;SDS011;28803;52.308;19.096;2023-04-09T03:04:40;45.22;;;21.17;;
43184;SDS011;28803;52.308;19.096;2023-04-09T03:07:08;50.60;;;21.73;;
43184;SDS011;28803;52.308;19.096;2023-04-09T03:09:35;50.33;;;23.15;;
43184;SDS011;28803;52.308;19.096;2023-04-09T03:12:03;51.33;;;22.75;;
43184;SDS011;28803;52.308;19.096;2023-04-09T03:14:30;42.72;;;21.63;;
43184;SDS011;28803;52.308;19.096;2023-04-09T03:16:58;49.97;;;23.38;;
43184;SDS011;28803;52.308;19.096;2023-04-09T03:19:25;47.30;;;21.00;;
43184;SDS011;28803;52.308;19.096;2023-04-09T03:21:53;52.33;;;22.15;;
43184;SDS011;28803;52.308;19.096;2023-04-09T03:24:20;50.38;;;21.95;;
43184;SDS011;28803;52.308;19.096;2023-04-09T03:26:47;51.58;;;22.45;;
43184;SDS011;28803;52.308;19.096;2023-04-09T03:29:15;50.08;;;22.85;;
43184;SDS011;28803;52.308;19.096;2023-04-09T03:31:42;47.78;;;22.27;;
43184;SDS011;28803;52.308;19.096;2023-04-09T03:34:09;51.53;;;22.25;;
43184;SDS011;28803;52.308;19.096;2023-04-09T03:36:37;55.97;;;24.13;;
43184;SDS011;28803;52.308;19.096;2023-04-09T03:39:04;52.42;;;24.92;;
43184;SDS011;28803;52.308;19.096;2023-04-09T03:41:32;53.17;;;23.75;;
43184;SDS011;28803;52.308;19.096;2023-04-09T03:43:59;58.42;;;23.60;;
43184;SDS011;28803;52.308;19.096;2023-04-09T03:46:26;52.60;;;23.90;;
43184;SDS011;28803;52.308;19.096;2023-04-09T03:48:53;59.35;;;26.17;;
43184;SDS011;28803;52.308;19.096;2023-04-09T03:51:21;51.40;;;24.35;;
43184;SDS011;28803;52.308;19.096;2023-04-09T03:53:48;50.10;;;24.48;;
43184;SDS011;28803;52.308;19.096;2023-04-09T03:56:15;54.45;;;25.58;;
43184;SDS011;28803;52.308;19.096;2023-04-09T03:58:42;51.08;;;24.85;;
43184;SDS011;28803;52.308;19.096;2023-04-09T04:01:09;57.15;;;25.77;;
43184;SDS011;28803;52.308;19.096;2023-04-09T04:03:36;53.40;;;23.92;;
43184;SDS011;28803;52.308;19.096;2023-04-09T04:06:04;57.10;;;27.27;;
43184;SDS011;28803;52.308;19.096;2023-04-09T04:08:32;60.95;;;28.25;;
43184;SDS011;28803;52.308;19.096;2023-04-09T04:11:02;57.88;;;27.50;;
43184;SDS011;28803;52.308;19.096;2023-04-09T04:13:30;61.67;;;25.80;;
43184;SDS011;28803;52.308;19.096;2023-04-09T04:15:58;61.15;;;27.05;;
43184;SDS011;28803;52.308;19.096;2023-04-09T04:18:25;55.97;;;27.02;;
43184;SDS011;28803;52.308;19.096;2023-04-09T04:20:52;52.88;;;25.00;;
43184;SDS011;28803;52.308;19.096;2023-04-09T04:23:19;51.50;;;23.92;;
43184;SDS011;28803;52.308;19.096;2023-04-09T04:25:47;56.47;;;25.02;;
43184;SDS011;28803;52.308;19.096;2023-04-09T04:28:14;56.67;;;25.95;;
43184;SDS011;28803;52.308;19.096;2023-04-09T04:30:42;55.42;;;25.02;;
43184;SDS011;28803;52.308;19.096;2023-04-09T04:33:09;49.72;;;23.17;;
43184;SDS011;28803;52.308;19.096;2023-04-09T04:35:36;56.22;;;26.35;;
43184;SDS011;28803;52.308;19.096;2023-04-09T04:38:03;54.08;;;25.40;;
43184;SDS011;28803;52.308;19.096;2023-04-09T04:40:31;56.35;;;24.85;;
43184;SDS011;28803;52.308;19.096;2023-04-09T04:42:58;53.55;;;24.92;;
43184;SDS011;28803;52.308;19.096;2023-04-09T04:45:25;56.88;;;25.70;;
43184;SDS011;28803;52.308;19.096;2023-04-09T04:47:52;57.47;;;26.52;;
43184;SDS011;28803;52.308;19.096;2023-04-09T04:50:20;64.05;;;25.95;;
43184;SDS011;28803;52.308;19.096;2023-04-09T04:52:47;61.22;;;25.23;;
43184;SDS011;28803;52.308;19.096;2023-04-09T04:55:14;53.70;;;23.30;;
43184;SDS011;28803;52.308;19.096;2023-04-09T04:57:42;52.80;;;23.10;;
43184;SDS011;28803;52.308;19.096;2023-04-09T05:00:09;53.13;;;24.10;;
43184;SDS011;28803;52.308;19.096;2023-04-09T05:02:37;54.13;;;24.20;;
43184;SDS011;28803;52.308;19.096;2023-04-09T05:05:05;50.35;;;23.73;;
43184;SDS011;28803;52.308;19.096;2023-04-09T05:07:32;54.83;;;23.85;;
43184;SDS011;28803;52.308;19.096;2023-04-09T05:10:00;51.60;;;23.20;;
43184;SDS011;28803;52.308;19.096;2023-04-09T05:12:29;51.22;;;22.75;;
43184;SDS011;28803;52.308;19.096;2023-04-09T05:14:57;45.53;;;22.27;;
43184;SDS011;28803;52.308;19.096;2023-04-09T05:17:24;46.20;;;22.90;;
43184;SDS011;28803;52.308;19.096;2023-04-09T05:19:52;53.75;;;23.02;;
43184;SDS011;28803;52.308;19.096;2023-04-09T05:22:19;54.22;;;24.48;;
43184;SDS011;28803;52.308;19.096;2023-04-09T05:24:46;59.47;;;24.05;;
43184;SDS011;28803;52.308;19.096;2023-04-09T05:27:14;53.38;;;24.08;;
43184;SDS011;28803;52.308;19.096;2023-04-09T05:29:41;51.55;;;25.70;;
43184;SDS011;28803;52.308;19.096;2023-04-09T05:32:08;51.35;;;23.65;;
43184;SDS011;28803;52.308;19.096;2023-04-09T05:34:35;48.45;;;22.60;;
43184;SDS011;28803;52.308;19.096;2023-04-09T05:37:02;56.60;;;25.15;;
43184;SDS011;28803;52.308;19.096;2023-04-09T05:39:31;51.55;;;22.20;;
43184;SDS011;28803;52.308;19.096;2023-04-09T05:41:58;52.05;;;24.20;;
43184;SDS011;28803;52.308;19.096;2023-04-09T05:44:25;46.70;;;22.20;;
43184;SDS011;28803;52.308;19.096;2023-04-09T05:46:52;51.28;;;23.58;;
43184;SDS011;28803;52.308;19.096;2023-04-09T05:49:20;51.78;;;24.55;;
43184;SDS011;28803;52.308;19.096;2023-04-09T05:51:48;53.63;;;24.15;;
43184;SDS011;28803;52.308;19.096;2023-04-09T05:54:16;48.10;;;21.83;;
43184;SDS011;28803;52.308;19.096;2023-04-09T05:56:43;46.85;;;22.15;;
43184;SDS011;28803;52.308;19.096;2023-04-09T05:59:10;44.72;;;21.15;;
43184;SDS011;28803;52.308;19.096;2023-04-09T06:01:38;59.42;;;27.10;;
43184;SDS011;28803;52.308;19.096;2023-04-09T06:04:05;61.13;;;27.80;;
43184;SDS011;28803;52.308;19.096;2023-04-09T06:06:33;51.00;;;24.50;;
43184;SDS011;28803;52.308;19.096;2023-04-09T06:09:02;65.05;;;26.27;;
43184;SDS011;28803;52.308;19.096;2023-04-09T06:11:30;54.92;;;25.02;;
43184;SDS011;28803;52.308;19.096;2023-04-09T06:13:58;52.53;;;24.38;;
43184;SDS011;28803;52.308;19.096;2023-04-09T06:16:25;55.70;;;24.45;;
43184;SDS011;28803;52.308;19.096;2023-04-09T06:18:52;53.10;;;23.73;;
43184;SDS011;28803;52.308;19.096;2023-04-09T06:21:22;46.20;;;22.27;;
43184;SDS011;28803;52.308;19.096;2023-04-09T06:23:49;49.63;;;23.05;;
43184;SDS011;28803;52.308;19.096;2023-04-09T06:26:19;48.72;;;22.83;;
43184;SDS011;28803;52.308;19.096;2023-04-09T06:28:47;51.58;;;21.95;;
43184;SDS011;28803;52.308;19.096;2023-04-09T06:31:14;50.05;;;22.15;;
43184;SDS011;28803;52.308;19.096;2023-04-09T06:33:41;51.63;;;22.38;;
43184;SDS011;28803;52.308;19.096;2023-04-09T06:36:08;40.08;;;20.15;;
43184;SDS011;28803;52.308;19.096;2023-04-09T06:38:36;44.05;;;21.17;;
43184;SDS011;28803;52.308;19.096;2023-04-09T06:41:03;44.05;;;19.23;;
43184;SDS011;28803;52.308;19.096;2023-04-09T06:43:34;35.30;;;17.80;;
43184;SDS011;28803;52.308;19.096;2023-04-09T06:46:02;48.80;;;23.58;;
43184;SDS011;28803;52.308;19.096;2023-04-09T06:48:29;54.65;;;24.17;;
43184;SDS011;28803;52.308;19.096;2023-04-09T06:50:56;65.30;;;25.00;;
43184;SDS011;28803;52.308;19.096;2023-04-09T06:53:25;44.08;;;20.55;;
43184;SDS011;28803;52.308;19.096;2023-04-09T06:55:53;42.97;;;20.02;;
43184;SDS011;28803;52.308;19.096;2023-04-09T06:58:22;38.47;;;19.70;;
43184;SDS011;28803;52.308;19.096;2023-04-09T07:00:49;41.58;;;20.77;;
43184;SDS011;28803;52.308;19.096;2023-04-09T07:03:17;39.38;;;19.48;;
43184;SDS011;28803;52.308;19.096;2023-04-09T07:05:44;42.47;;;20.83;;
43184;SDS011;28803;52.308;19.096;2023-04-09T07:08:12;35.58;;;19.83;;
43184;SDS011;28803;52.308;19.096;2023-04-09T07:10:39;34.22;;;17.92;;
43184;SDS011;28803;52.308;19.096;2023-04-09T07:13:07;34.67;;;17.73;;
43184;SDS011;28803;52.308;19.096;2023-04-09T07:15:34;35.60;;;19.85;;
43184;SDS011;28803;52.308;19.096;2023-04-09T07:18:02;39.47;;;19.35;;
43184;SDS011;28803;52.308;19.096;2023-04-09T07:20:29;36.85;;;19.58;;
43184;SDS011;28803;52.308;19.096;2023-04-09T07:22:56;32.50;;;18.83;;
43184;SDS011;28803;52.308;19.096;2023-04-09T07:25:24;35.53;;;17.50;;
43184;SDS011;28803;52.308;19.096;2023-04-09T07:27:52;37.45;;;18.38;;
43184;SDS011;28803;52.308;19.096;2023-04-09T07:30:19;32.03;;;17.67;;
43184;SDS011;28803;52.308;19.096;2023-04-09T07:32:47;33.25;;;16.95;;
43184;SDS011;28803;52.308;19.096;2023-04-09T07:35:14;32.45;;;16.98;;
43184;SDS011;28803;52.308;19.096;2023-04-09T07:37:41;30.25;;;17.15;;
43184;SDS011;28803;52.308;19.096;2023-04-09T07:40:08;32.40;;;18.55;;
43184;SDS011;28803;52.308;19.096;2023-04-09T07:42:37;34.20;;;18.98;;
43184;SDS011;28803;52.308;19.096;2023-04-09T07:45:05;35.22;;;19.02;;
43184;SDS011;28803;52.308;19.096;2023-04-09T07:47:33;38.50;;;20.83;;
43184;SDS011;28803;52.308;19.096;2023-04-09T07:50:00;34.92;;;19.40;;
43184;SDS011;28803;52.308;19.096;2023-04-09T07:52:28;36.08;;;18.50;;
43184;SDS011;28803;52.308;19.096;2023-04-09T07:54:55;33.95;;;19.50;;
43184;SDS011;28803;52.308;19.096;2023-04-09T07:57:23;37.55;;;19.90;;
43184;SDS011;28803;52.308;19.096;2023-04-09T07:59:51;38.50;;;20.70;;
43184;SDS011;28803;52.308;19.096;2023-04-09T08:02:20;39.75;;;21.45;;
43184;SDS011;28803;52.308;19.096;2023-04-09T08:04:48;39.65;;;20.55;;
43184;SDS011;28803;52.308;19.096;2023-04-09T08:07:16;35.25;;;19.75;;
43184;SDS011;28803;52.308;19.096;2023-04-09T08:09:43;40.97;;;20.40;;
43184;SDS011;28803;52.308;19.096;2023-04-09T08:12:11;35.05;;;18.80;;
43184;SDS011;28803;52.308;19.096;2023-04-09T08:14:38;37.92;;;19.50;;
43184;SDS011;28803;52.308;19.096;2023-04-09T08:17:07;40.17;;;21.08;;
43184;SDS011;28803;52.308;19.096;2023-04-09T08:19:34;40.13;;;20.85;;
43184;SDS011;28803;52.308;19.096;2023-04-09T08:22:01;45.03;;;21.92;;
43184;SDS011;28803;52.308;19.096;2023-04-09T08:24:28;36.38;;;20.73;;
43184;SDS011;28803;52.308;19.096;2023-04-09T08:26:57;42.45;;;19.88;;
43184;SDS011;28803;52.308;19.096;2023-04-09T08:29:25;41.70;;;20.88;;
43184;SDS011;28803;52.308;19.096;2023-04-09T08:31:52;44.78;;;20.35;;
43184;SDS011;28803;52.308;19.096;2023-04-09T08:34:20;47.90;;;21.08;;
43184;SDS011;28803;52.308;19.096;2023-04-09T08:36:48;41.90;;;21.40;;
43184;SDS011;28803;52.308;19.096;2023-04-09T08:39:15;42.50;;;20.85;;
43184;SDS011;28803;52.308;19.096;2023-04-09T08:41:46;36.13;;;20.60;;
43184;SDS011;28803;52.308;19.096;2023-04-09T08:44:14;45.75;;;22.90;;
43184;SDS011;28803;52.308;19.096;2023-04-09T08:46:42;44.88;;;21.40;;
43184;SDS011;28803;52.308;19.096;2023-04-09T08:49:10;40.58;;;22.17;;
43184;SDS011;28803;52.308;19.096;2023-04-09T08:51:44;38.53;;;20.60;;
43184;SDS011;28803;52.308;19.096;2023-04-09T08:54:13;37.55;;;21.63;;
43184;SDS011;28803;52.308;19.096;2023-04-09T08:56:43;39.17;;;19.90;;
43184;SDS011;28803;52.308;19.096;2023-04-09T08:59:10;36.60;;;20.25;;
43184;SDS011;28803;52.308;19.096;2023-04-09T09:01:41;37.42;;;20.10;;
43184;SDS011;28803;52.308;19.096;2023-04-09T09:04:08;38.00;;;19.02;;
43184;SDS011;28803;52.308;19.096;2023-04-09T09:06:37;35.47;;;19.15;;
43184;SDS011;28803;52.308;19.096;2023-04-09T09:09:10;39.20;;;20.67;;
43184;SDS011;28803;52.308;19.096;2023-04-09T09:11:42;38.25;;;21.10;;
43184;SDS011;28803;52.308;19.096;2023-04-09T09:14:19;39.60;;;20.65;;
43184;SDS011;28803;52.308;19.096;2023-04-09T09:21:57;39.88;;;20.08;;
43184;SDS011;28803;52.308;19.096;2023-04-09T09:24:26;35.38;;;20.45;;
43184;SDS011;28803;52.308;19.096;2023-04-09T09:26:53;39.08;;;21.13;;
43184;SDS011;28803;52.308;19.096;2023-04-09T09:29:21;41.90;;;21.35;;
43184;SDS011;28803;52.308;19.096;2023-04-09T09:31:50;41.13;;;20.60;;
43184;SDS011;28803;52.308;19.096;2023-04-09T09:34:19;40.22;;;21.63;;
43184;SDS011;28803;52.308;19.096;2023-04-09T09:36:47;41.42;;;21.15;;
43184;SDS011;28803;52.308;19.096;2023-04-09T09:39:15;38.50;;;20.30;;
43184;SDS011;28803;52.308;19.096;2023-04-09T09:41:44;40.72;;;22.00;;
43184;SDS011;28803;52.308;19.096;2023-04-09T09:44:29;37.20;;;20.65;;
43184;SDS011;28803;52.308;19.096;2023-04-09T09:46:58;37.88;;;20.73;;
43184;SDS011;28803;52.308;19.096;2023-04-09T09:49:26;38.58;;;20.63;;
43184;SDS011;28803;52.308;19.096;2023-04-09T09:51:54;34.28;;;19.67;;
43184;SDS011;28803;52.308;19.096;2023-04-09T09:54:23;34.25;;;17.85;;
43184;SDS011;28803;52.308;19.096;2023-04-09T09:56:54;34.65;;;18.90;;
43184;SDS011;28803;52.308;19.096;2023-04-09T09:59:29;38.92;;;20.80;;
43184;SDS011;28803;52.308;19.096;2023-04-09T10:02:02;29.17;;;17.65;;
43184;SDS011;28803;52.308;19.096;2023-04-09T10:04:34;33.22;;;18.60;;
43184;SDS011;28803;52.308;19.096;2023-04-09T10:07:05;42.95;;;21.23;;
43184;SDS011;28803;52.308;19.096;2023-04-09T10:09:36;31.40;;;18.85;;
43184;SDS011;28803;52.308;19.096;2023-04-09T10:12:05;36.43;;;18.17;;
43184;SDS011;28803;52.308;19.096;2023-04-09T10:14:34;31.73;;;16.80;;
43184;SDS011;28803;52.308;19.096;2023-04-09T10:17:03;30.65;;;18.73;;
43184;SDS011;28803;52.308;19.096;2023-04-09T10:19:30;32.65;;;18.52;;
43184;SDS011;28803;52.308;19.096;2023-04-09T10:22:06;29.25;;;16.92;;
43184;SDS011;28803;52.308;19.096;2023-04-09T10:24:41;32.00;;;18.15;;
43184;SDS011;28803;52.308;19.096;2023-04-09T10:27:13;44.45;;;17.58;;
43184;SDS011;28803;52.308;19.096;2023-04-09T10:29:46;28.73;;;16.75;;
43184;SDS011;28803;52.308;19.096;2023-04-09T10:32:19;31.50;;;17.00;;
43184;SDS011;28803;52.308;19.096;2023-04-09T10:34:48;28.60;;;15.95;;
43184;SDS011;28803;52.308;19.096;2023-04-09T10:37:20;30.23;;;17.98;;
43184;SDS011;28803;52.308;19.096;2023-04-09T10:39:49;27.33;;;16.10;;
43184;SDS011;28803;52.308;19.096;2023-04-09T10:42:28;31.45;;;17.73;;
43184;SDS011;28803;52.308;19.096;2023-04-09T10:45:05;34.53;;;18.52;;
43184;SDS011;28803;52.308;19.096;2023-04-09T10:47:37;31.55;;;17.52;;
43184;SDS011;28803;52.308;19.096;2023-04-09T10:50:24;27.30;;;15.48;;
43184;SDS011;28803;52.308;19.096;2023-04-09T10:52:56;28.63;;;16.25;;
43184;SDS011;28803;52.308;19.096;2023-04-09T10:55:29;27.23;;;16.25;;
43184;SDS011;28803;52.308;19.096;2023-04-09T10:58:07;26.40;;;14.95;;
43184;SDS011;28803;52.308;19.096;2023-04-09T11:00:39;25.02;;;14.50;;
43184;SDS011;28803;52.308;19.096;2023-04-09T11:03:18;26.83;;;15.80;;
43184;SDS011;28803;52.308;19.096;2023-04-09T11:06:00;22.63;;;14.55;;
43184;SDS011;28803;52.308;19.096;2023-04-09T11:08:29;22.73;;;13.95;;
43184;SDS011;28803;52.308;19.096;2023-04-09T11:10:58;22.92;;;14.75;;
43184;SDS011;28803;52.308;19.096;2023-04-09T11:13:28;26.17;;;16.00;;
43184;SDS011;28803;52.308;19.096;2023-04-09T11:15:57;24.35;;;14.23;;
43184;SDS011;28803;52.308;19.096;2023-04-09T11:18:27;26.30;;;15.25;;
43184;SDS011;28803;52.308;19.096;2023-04-09T11:20:56;26.10;;;15.35;;
43184;SDS011;28803;52.308;19.096;2023-04-09T11:23:24;23.75;;;14.13;;
43184;SDS011;28803;52.308;19.096;2023-04-09T11:25:52;22.70;;;14.05;;
43184;SDS011;28803;52.308;19.096;2023-04-09T11:28:21;26.05;;;14.77;;
43184;SDS011;28803;52.308;19.096;2023-04-09T11:30:49;25.45;;;14.25;;
43184;SDS011;28803;52.308;19.096;2023-04-09T11:33:18;26.60;;;14.80;;
43184;SDS011;28803;52.308;19.096;2023-04-09T11:35:46;23.05;;;14.75;;
43184;SDS011;28803;52.308;19.096;2023-04-09T11:38:15;26.02;;;14.35;;
43184;SDS011;28803;52.308;19.096;2023-04-09T11:40:42;23.70;;;14.85;;
43184;SDS011;28803;52.308;19.096;2023-04-09T11:43:17;24.65;;;15.00;;
43184;SDS011;28803;52.308;19.096;2023-04-09T11:45:46;23.02;;;13.73;;
43184;SDS011;28803;52.308;19.096;2023-04-09T11:48:15;24.30;;;14.90;;
43184;SDS011;28803;52.308;19.096;2023-04-09T11:50:47;24.73;;;14.68;;
43184;SDS011;28803;52.308;19.096;2023-04-09T11:53:18;25.80;;;14.55;;
43184;SDS011;28803;52.308;19.096;2023-04-09T11:55:48;26.13;;;16.23;;
43184;SDS011;28803;52.308;19.096;2023-04-09T11:58:17;25.88;;;14.95;;
43184;SDS011;28803;52.308;19.096;2023-04-09T12:00:47;27.52;;;16.27;;
43184;SDS011;28803;52.308;19.096;2023-04-09T12:03:18;27.73;;;15.90;;
43184;SDS011;28803;52.308;19.096;2023-04-09T12:05:58;28.20;;;16.77;;
43184;SDS011;28803;52.308;19.096;2023-04-09T12:08:27;29.92;;;16.75;;
43184;SDS011;28803;52.308;19.096;2023-04-09T12:10:54;28.88;;;17.88;;
43184;SDS011;28803;52.308;19.096;2023-04-09T12:13:30;26.13;;;15.95;;
43184;SDS011;28803;52.308;19.096;2023-04-09T12:15:59;28.23;;;17.15;;
43184;SDS011;28803;52.308;19.096;2023-04-09T12:18:28;29.75;;;17.63;;
43184;SDS011;28803;52.308;19.096;2023-04-09T12:20:55;28.23;;;17.27;;
43184;SDS011;28803;52.308;19.096;2023-04-09T12:23:23;30.15;;;18.02;;
43184;SDS011;28803;52.308;19.096;2023-04-09T12:25:50;25.95;;;16.23;;
43184;SDS011;28803;52.308;19.096;2023-04-09T12:28:17;26.85;;;18.25;;
43184;SDS011;28803;52.308;19.096;2023-04-09T12:30:45;28.17;;;18.27;;
43184;SDS011;28803;52.308;19.096;2023-04-09T12:33:13;28.05;;;18.27;;
43184;SDS011;28803;52.308;19.096;2023-04-09T12:35:41;28.00;;;17.90;;
43184;SDS011;28803;52.308;19.096;2023-04-09T12:38:08;33.10;;;19.67;;
43184;SDS011;28803;52.308;19.096;2023-04-09T12:40:35;31.88;;;18.58;;
43184;SDS011;28803;52.308;19.096;2023-04-09T12:43:03;32.72;;;20.35;;
43184;SDS011;28803;52.308;19.096;2023-04-09T12:45:31;34.58;;;20.77;;
43184;SDS011;28803;52.308;19.096;2023-04-09T12:47:58;37.75;;;21.30;;
43184;SDS011;28803;52.308;19.096;2023-04-09T12:50:26;36.60;;;21.48;;
43184;SDS011;28803;52.308;19.096;2023-04-09T12:52:54;36.25;;;20.98;;
43184;SDS011;28803;52.308;19.096;2023-04-09T12:55:21;30.60;;;20.33;;
43184;SDS011;28803;52.308;19.096;2023-04-09T12:57:49;35.03;;;20.35;;
43184;SDS011;28803;52.308;19.096;2023-04-09T13:00:17;33.08;;;20.30;;
43184;SDS011;28803;52.308;19.096;2023-04-09T13:02:45;34.15;;;19.17;;
43184;SDS011;28803;52.308;19.096;2023-04-09T13:05:12;28.58;;;17.77;;
43184;SDS011;28803;52.308;19.096;2023-04-09T13:07:40;31.25;;;18.70;;
43184;SDS011;28803;52.308;19.096;2023-04-09T13:10:09;33.75;;;18.75;;
43184;SDS011;28803;52.308;19.096;2023-04-09T13:12:37;32.15;;;17.83;;
43184;SDS011;28803;52.308;19.096;2023-04-09T13:15:04;29.75;;;18.65;;
43184;SDS011;28803;52.308;19.096;2023-04-09T13:17:32;27.30;;;16.42;;
43184;SDS011;28803;52.308;19.096;2023-04-09T13:20:00;30.90;;;17.27;;
43184;SDS011;28803;52.308;19.096;2023-04-09T13:22:27;27.85;;;16.58;;
43184;SDS011;28803;52.308;19.096;2023-04-09T13:24:55;28.65;;;18.50;;
43184;SDS011;28803;52.308;19.096;2023-04-09T13:27:23;28.50;;;18.02;;
43184;SDS011;28803;52.308;19.096;2023-04-09T13:29:50;25.90;;;16.38;;
43184;SDS011;28803;52.308;19.096;2023-04-09T13:32:18;26.20;;;16.05;;
43184;SDS011;28803;52.308;19.096;2023-04-09T13:34:47;25.48;;;15.43;;
43184;SDS011;28803;52.308;19.096;2023-04-09T13:37:16;25.38;;;15.77;;
43184;SDS011;28803;52.308;19.096;2023-04-09T13:39:44;23.17;;;14.05;;
43184;SDS011;28803;52.308;19.096;2023-04-09T13:42:12;26.38;;;15.05;;
43184;SDS011;28803;52.308;19.096;2023-04-09T13:44:40;26.92;;;15.55;;
43184;SDS011;28803;52.308;19.096;2023-04-09T13:47:11;24.23;;;15.70;;
43184;SDS011;28803;52.308;19.096;2023-04-09T13:49:39;27.00;;;15.57;;
43184;SDS011;28803;52.308;19.096;2023-04-09T13:52:07;23.80;;;13.93;;
43184;SDS011;28803;52.308;19.096;2023-04-09T13:54:35;29.00;;;16.05;;
43184;SDS011;28803;52.308;19.096;2023-04-09T13:57:03;23.25;;;15.07;;
43184;SDS011;28803;52.308;19.096;2023-04-09T13:59:30;26.20;;;15.50;;
43184;SDS011;28803;52.308;19.096;2023-04-09T14:01:58;30.25;;;16.63;;
43184;SDS011;28803;52.308;19.096;2023-04-09T14:04:25;23.85;;;15.07;;
43184;SDS011;28803;52.308;19.096;2023-04-09T14:06:53;25.85;;;15.18;;
43184;SDS011;28803;52.308;19.096;2023-04-09T14:09:20;26.63;;;15.45;;
43184;SDS011;28803;52.308;19.096;2023-04-09T14:11:48;25.77;;;15.95;;
43184;SDS011;28803;52.308;19.096;2023-04-09T14:14:16;23.98;;;14.88;;
43184;SDS011;28803;52.308;19.096;2023-04-09T14:16:44;23.20;;;14.30;;
43184;SDS011;28803;52.308;19.096;2023-04-09T14:19:12;24.48;;;14.90;;
43184;SDS011;28803;52.308;19.096;2023-04-09T14:21:40;23.73;;;13.25;;
43184;SDS011;28803;52.308;19.096;2023-04-09T14:24:07;22.88;;;14.35;;
43184;SDS011;28803;52.308;19.096;2023-04-09T14:26:34;20.55;;;13.48;;
43184;SDS011;28803;52.308;19.096;2023-04-09T14:29:03;31.13;;;15.93;;
43184;SDS011;28803;52.308;19.096;2023-04-09T14:31:30;27.65;;;14.48;;
43184;SDS011;28803;52.308;19.096;2023-04-09T14:33:57;26.50;;;15.80;;